Time;durP1;ratioP1;P1;durP2;ratioP2;P2;SDS_P1;SDS_P2;PMS_P1;PMS_P2;Temp;Humidity;BMP_temperature;BMP_pressure;BME280_temperature;BME280_humidity;BME280_pressure;Samples;Min_cycle;Max_cycle;Signal;HPM_P1;HPM_P2
2023/07/06 00:02:03;;;;;;;8.38;6.28;;;;;;;14.27;88.69;101225.81;3574933;40;20088;-68
2023/07/06 00:04:28;;;;;;;8.55;6.20;;;;;;;14.78;88.94;101315.09;3573330;40;20059;-68
2023/07/06 00:06:55;;;;;;;7.82;6.10;;;;;;;14.79;88.58;101316.84;3576602;40;20103;-68
2023/07/06 00:09:21;;;;;;;7.22;5.88;;;;;;;14.70;87.89;101304.81;3576223;40;20468;-66
2023/07/06 00:11:47;;;;;;;8.10;6.15;;;;;;;14.74;88.07;101310.88;3574940;40;20066;-68
2023/07/06 00:14:15;;;;;;;7.70;5.63;;;;;;;14.76;88.76;101308.94;3574161;40;20051;-68
2023/07/06 00:16:47;;;;;;;9.95;5.72;;;;;;;14.74;88.31;101314.44;3573860;40;20056;-67
2023/07/06 00:19:18;;;;;;;10.80;5.90;;;;;;;14.71;87.83;101311.09;3571736;40;20535;-67
2023/07/06 00:21:44;;;;;;;10.63;5.43;;;;;;;14.66;88.13;101305.16;3582235;39;20278;-69
2023/07/06 00:24:10;;;;;;;7.93;5.50;;;;;;;14.63;88.22;101307.09;3576671;40;20048;-68
2023/07/06 00:26:35;;;;;;;9.80;5.60;;;;;;;14.47;87.33;101281.22;3577753;40;20380;-69
2023/07/06 00:29:01;;;;;;;8.18;5.72;;;;;;;14.62;88.84;101308.09;3575256;40;20068;-68
2023/07/06 00:31:32;;;;;;;7.13;5.28;;;;;;;14.60;87.38;101320.84;3571525;40;20060;-69
2023/07/06 00:34:05;;;;;;;9.63;5.28;;;;;;;14.46;88.00;101293.00;3572054;40;20054;-68
2023/07/06 00:36:35;;;;;;;9.70;4.95;;;;;;;14.39;88.11;101281.75;3572139;40;20049;-69
2023/07/06 00:39:01;;;;;;;8.85;5.15;;;;;;;14.46;87.35;101307.41;3574953;40;20323;-68
2023/07/06 00:41:28;;;;;;;6.65;4.78;;;;;;;14.43;87.54;101307.63;3581554;39;20060;-68
2023/07/06 00:43:56;;;;;;;8.57;4.85;;;;;;;14.23;87.56;101276.56;3576331;40;20497;-68
2023/07/06 00:46:29;;;;;;;8.30;5.10;;;;;;;14.42;87.69;101311.28;3573394;40;20067;-68
2023/07/06 00:49:01;;;;;;;8.18;5.03;;;;;;;14.35;88.00;101305.44;3578929;39;21846;-68
2023/07/06 00:51:39;;;;;;;10.73;5.32;;;;;;;14.29;87.63;101302.31;3568871;40;20478;-67
2023/07/06 00:54:16;;;;;;;7.32;4.78;;;;;;;14.24;86.81;101290.94;3572364;40;20052;-68
2023/07/06 00:56:49;;;;;;;7.03;4.93;;;;;;;14.36;87.19;101317.13;3574841;40;20063;-67
2023/07/06 00:59:26;;;;;;;8.52;4.50;;;;;;;13.90;87.04;101240.09;3574267;40;20108;-67
2023/07/06 01:01:53;;;;;;;6.70;4.18;;;;;;;14.33;87.02;101314.63;3577826;40;20060;-67
2023/07/06 01:04:21;;;;;;;8.40;4.50;;;;;;;14.30;87.10;101306.75;3578754;39;20052;-68
2023/07/06 01:06:52;;;;;;;8.93;4.20;;;;;;;14.27;86.33;101312.34;3572548;40;20052;-67
2023/07/06 01:09:18;;;;;;;7.75;4.55;;;;;;;14.15;87.05;101304.16;3574617;40;20381;-67
2023/07/06 01:11:45;;;;;;;6.60;3.88;;;;;;;14.03;87.38;101277.94;3573648;40;20064;-67
2023/07/06 01:14:13;;;;;;;8.02;4.20;;;;;;;14.20;87.85;101305.66;3575027;40;20091;-67
2023/07/06 01:17:00;;;;;;;9.55;4.30;;;;;;;14.19;86.23;101309.34;3574025;40;20048;-67
2023/07/06 01:19:52;;;;;;;7.47;4.40;;;;;;;14.16;86.35;101310.41;3576648;40;20100;-67
2023/07/06 01:22:51;;;;;;;7.53;4.10;;;;;;;14.14;86.76;101312.34;3572475;40;20070;-67
2023/07/06 01:25:45;;;;;;;9.07;4.18;;;;;;;14.13;86.88;101307.91;3571499;40;20142;-67
2023/07/06 01:28:34;;;;;;;4.18;3.72;;;;;;;14.13;86.41;101311.47;3571726;40;20053;-66
2023/07/06 01:31:46;;;;;;;7.93;4.22;;;;;;;14.11;86.33;101308.03;3572169;40;20054;-67
2023/07/06 01:34:32;;;;;;;6.32;3.92;;;;;;;14.02;86.81;101295.16;3562250;40;20511;-67
2023/07/06 01:37:33;;;;;;;7.43;4.15;;;;;;;14.10;86.60;101311.69;3574814;40;20045;-67
2023/07/06 01:40:00;;;;;;;4.80;3.90;;;;;;;14.12;86.92;101315.16;3568845;40;20148;-67
2023/07/06 01:42:34;;;;;;;5.75;3.70;;;;;;;14.13;85.74;101310.63;3575297;40;20045;-68
2023/07/06 01:45:16;;;;;;;6.53;4.07;;;;;;;14.09;85.29;101315.38;3572796;40;20060;-68
2023/07/06 01:48:10;;;;;;;6.65;3.63;;;;;;;14.04;86.53;101309.41;3572186;40;20112;-66
2023/07/06 01:50:48;;;;;;;7.63;3.83;;;;;;;14.09;86.33;101306.41;3573354;40;20382;-67
2023/07/06 01:53:55;;;;;;;7.43;4.30;;;;;;;14.02;85.33;101305.06;3572082;40;20055;-68
2023/07/06 01:56:38;;;;;;;5.82;3.58;;;;;;;13.91;86.29;101295.88;3580104;39;20650;-68
2023/07/06 01:59:13;;;;;;;7.80;3.78;;;;;;;13.98;86.32;101312.53;3572796;40;20121;-66
2023/07/06 02:01:48;;;;;;;6.43;3.78;;;;;;;13.98;86.54;101317.94;3571438;40;20069;-66
2023/07/06 02:04:20;;;;;;;5.50;3.85;;;;;;;13.92;85.23;101315.66;3572145;40;20052;-67
2023/07/06 02:06:53;;;;;;;6.80;3.72;;;;;;;13.80;85.93;101294.91;3570849;40;20131;-69
2023/07/06 02:09:19;;;;;;;11.80;4.03;;;;;;;13.88;85.88;101312.28;3573796;40;20403;-68
2023/07/06 02:11:45;;;;;;;6.03;3.80;;;;;;;13.85;86.08;101306.25;3571524;40;20074;-69
2023/07/06 02:14:11;;;;;;;6.22;3.50;;;;;;;13.87;86.54;101315.13;3572323;40;20397;-68
2023/07/06 02:16:36;;;;;;;10.30;3.92;;;;;;;13.79;85.71;101312.91;3573389;40;20063;-68
2023/07/06 02:19:03;;;;;;;8.48;3.85;;;;;;;13.77;85.97;101305.91;3573710;40;20052;-68
2023/07/06 02:21:32;;;;;;;5.78;3.45;;;;;;;13.68;85.99;101302.84;3573186;40;20380;-67
2023/07/06 02:23:57;;;;;;;9.07;3.95;;;;;;;13.74;85.69;101308.81;3581085;39;20303;-68
2023/07/06 02:26:23;;;;;;;5.47;3.55;;;;;;;13.73;85.79;101312.47;3575743;40;20107;-69
2023/07/06 02:28:49;;;;;;;8.52;3.72;;;;;;;13.70;86.67;101309.03;3574090;40;20383;-68
2023/07/06 02:31:14;;;;;;;8.80;3.75;;;;;;;13.72;86.73;101305.34;3570292;40;20488;-68
2023/07/06 02:33:40;;;;;;;5.95;3.70;;;;;;;13.63;86.57;101285.22;3571896;40;20085;-68
2023/07/06 02:36:06;;;;;;;6.18;3.70;;;;;;;13.69;86.14;101296.47;3579071;39;20096;-68
2023/07/06 02:38:34;;;;;;;7.80;4.07;;;;;;;13.61;85.98;101296.13;3574491;40;20432;-68
2023/07/06 02:41:04;;;;;;;4.78;3.38;;;;;;;13.64;86.78;101304.03;3570898;40;20052;-68
2023/07/06 02:43:30;;;;;;;5.90;3.60;;;;;;;13.61;87.09;101296.13;3575747;40;20395;-68
2023/07/06 02:45:57;;;;;;;4.60;3.38;;;;;;;13.61;86.56;101295.28;3573518;40;20048;-67
2023/07/06 02:48:24;;;;;;;7.68;3.70;;;;;;;13.67;86.42;101305.66;3579216;39;20075;-68
2023/07/06 02:50:51;;;;;;;8.88;3.80;;;;;;;13.62;86.01;101302.41;3575355;40;20056;-67
2023/07/06 02:53:19;;;;;;;5.45;3.60;;;;;;;13.44;86.73;101274.75;3578177;39;20076;-68
2023/07/06 02:55:46;;;;;;;8.15;4.20;;;;;;;13.62;87.36;101302.41;3573133;40;20143;-68
2023/07/06 02:58:12;;;;;;;6.32;3.70;;;;;;;13.55;86.89;101293.84;3573148;40;20048;-69
2023/07/06 03:00:37;;;;;;;9.27;4.22;;;;;;;13.57;86.39;101297.28;3578673;39;20088;-68
2023/07/06 03:03:03;;;;;;;8.00;3.72;;;;;;;13.53;87.35;101297.59;3573794;40;20060;-70
2023/07/06 03:05:30;;;;;;;7.07;3.85;;;;;;;13.58;87.36;101312.53;3574883;40;20097;-68
2023/07/06 03:07:56;;;;;;;9.43;3.80;;;;;;;13.65;88.03;101321.97;3580163;39;20134;-67
2023/07/06 03:10:23;;;;;;;9.25;3.47;;;;;;;13.51;86.92;101284.22;3569522;40;20454;-70
2023/07/06 03:12:49;;;;;;;7.75;3.80;;;;;;;13.63;86.40;101313.09;3573078;40;20057;-68
2023/07/06 03:15:16;;;;;;;7.70;4.03;;;;;;;13.65;87.06;101323.81;3572383;40;20297;-67
2023/07/06 03:17:48;;;;;;;7.82;3.70;;;;;;;13.66;86.76;101315.56;3571555;40;20298;-67
2023/07/06 03:20:19;;;;;;;4.88;3.33;;;;;;;13.66;87.09;101312.00;3574594;40;20056;-68
2023/07/06 03:22:51;;;;;;;8.68;3.90;;;;;;;13.67;86.62;101320.03;3574780;40;20421;-69
2023/07/06 03:25:35;;;;;;;6.32;3.83;;;;;;;13.63;86.72;101318.47;3572858;40;20068;-69
2023/07/06 03:28:01;;;;;;;9.02;3.95;;;;;;;13.57;86.09;101313.50;3572573;40;20214;-68
2023/07/06 03:30:29;;;;;;;6.63;3.75;;;;;;;13.65;86.49;101326.50;3573190;40;20482;-69
2023/07/06 03:32:55;;;;;;;7.53;3.67;;;;;;;13.67;86.70;101330.84;3574157;40;20056;-67
2023/07/06 03:35:24;;;;;;;9.80;4.30;;;;;;;13.51;86.78;101296.81;3572700;40;20045;-67
2023/07/06 03:37:58;;;;;;;9.73;3.90;;;;;;;13.65;86.24;101321.09;3572302;40;20152;-67
2023/07/06 03:40:26;;;;;;;;;;;;;;;13.49;85.77;101307.75;3575378;40;20056;-69
2023/07/06 03:42:56;;;;;;;9.07;3.97;;;;;;;13.64;86.42;101341.84;3581171;40;19982;-68
2023/07/06 03:45:23;;;;;;;8.45;3.97;;;;;;;13.65;86.29;101342.72;3582079;40;20053;-68
2023/07/06 03:47:50;;;;;;;7.35;4.13;;;;;;;13.61;86.56;101331.25;3579928;40;20287;-68
2023/07/06 03:50:20;;;;;;;9.00;4.50;;;;;;;13.68;86.66;101345.22;3573504;40;20481;-70
2023/07/06 03:52:47;;;;;;;7.93;4.07;;;;;;;13.61;85.96;101342.06;3573393;40;20534;-69
2023/07/06 03:55:16;;;;;;;9.88;3.88;;;;;;;13.76;85.36;101347.38;3575412;40;20300;-70
2023/07/06 03:57:45;;;;;;;10.68;4.53;;;;;;;13.77;84.95;101341.91;3575283;40;20060;-69
2023/07/06 04:00:22;;;;;;;11.35;3.97;;;;;;;13.67;85.22;101347.06;3574701;40;20061;-70
2023/07/06 04:02:56;;;;;;;9.52;3.95;;;;;;;13.65;85.38;101348.97;3581812;39;20348;-70
2023/07/06 04:05:32;;;;;;;8.98;4.55;;;;;;;13.73;85.70;101366.50;3573356;40;20122;-69
2023/07/06 04:08:03;;;;;;;9.02;4.20;;;;;;;13.76;85.33;101367.16;3573662;40;20143;-70
2023/07/06 04:10:30;;;;;;;7.22;4.13;;;;;;;13.72;85.41;101365.66;3575050;40;20064;-70
2023/07/06 04:12:57;;;;;;;8.48;4.22;;;;;;;13.67;85.35;101360.56;3575217;40;20044;-69
2023/07/06 04:15:23;;;;;;;8.13;4.43;;;;;;;13.66;85.17;101360.66;3576442;40;20057;-71
2023/07/06 04:17:52;;;;;;;7.00;4.25;;;;;;;13.72;86.08;101360.25;3570587;40;20045;-70
2023/07/06 04:20:30;;;;;;;8.82;4.30;;;;;;;13.62;86.47;101343.78;3573115;40;20057;-70
2023/07/06 04:22:58;;;;;;;10.80;4.18;;;;;;;13.74;86.31;101362.84;3575688;40;20296;-70
2023/07/06 04:25:29;;;;;;;7.40;4.15;;;;;;;13.63;86.13;101332.00;3571232;40;20052;-70
2023/07/06 04:27:57;;;;;;;10.23;4.63;;;;;;;13.80;85.47;101367.84;3579008;39;20172;-70
2023/07/06 04:30:23;;;;;;;11.32;6.05;;;;;;;13.76;85.52;101360.91;3572112;40;20411;-70
2023/07/06 04:32:50;;;;;;;7.97;4.00;;;;;;;13.51;85.44;101322.03;3574535;40;20426;-70
2023/07/06 04:35:19;;;;;;;9.82;4.50;;;;;;;13.68;85.51;101358.72;3571504;40;20068;-70
2023/07/06 04:37:46;;;;;;;11.07;4.22;;;;;;;13.81;86.08;101381.25;3574880;40;20062;-70
2023/07/06 04:40:17;;;;;;;10.18;4.32;;;;;;;13.78;85.75;101367.06;3575924;40;20505;-70
2023/07/06 04:42:46;;;;;;;11.52;4.28;;;;;;;13.84;85.70;101380.19;3574331;40;20289;-70
2023/07/06 04:45:14;;;;;;;7.25;4.45;;;;;;;13.89;85.43;101383.44;3574654;40;20066;-70
2023/07/06 04:47:44;;;;;;;12.80;4.85;;;;;;;13.85;85.93;101365.69;3573221;40;20060;-70
2023/07/06 04:50:37;;;;;;;8.90;4.40;;;;;;;13.91;85.03;101373.38;3571550;40;20337;-70
2023/07/06 04:53:07;;;;;;;11.93;4.73;;;;;;;14.03;85.31;101386.09;3580469;39;20406;-69
2023/07/06 04:55:34;;;;;;;8.60;4.40;;;;;;;14.03;85.39;101369.88;3575265;40;20295;-70
2023/07/06 04:58:05;;;;;;;10.10;4.18;;;;;;;14.15;85.12;101392.50;3572955;40;20048;-69
2023/07/06 05:00:37;;;;;;;9.07;4.70;;;;;;;14.07;85.50;101365.13;3577349;40;20063;-69
2023/07/06 05:03:08;;;;;;;12.48;5.15;;;;;;;14.26;84.85;101391.75;3570837;40;20061;-70
2023/07/06 05:05:42;;;;;;;14.10;4.72;;;;;;;14.23;84.25;101378.44;3566318;40;20049;-70
2023/07/06 05:08:15;;;;;;;9.43;4.65;;;;;;;14.34;84.57;101394.81;3569387;40;20344;-70
2023/07/06 05:10:46;;;;;;;;;;;;;;;14.10;84.35;101359.50;3574164;40;20068;-70
2023/07/06 05:13:12;;;;;;;8.95;4.78;;;;;;;14.23;84.50;101375.75;3573158;40;19943;-70
2023/07/06 05:15:38;;;;;;;12.82;5.82;;;;;;;14.12;84.80;101361.13;3572950;40;20050;-69
2023/07/06 05:18:06;;;;;;;9.95;4.82;;;;;;;14.38;84.92;101402.59;3574969;40;20291;-69
2023/07/06 05:20:32;;;;;;;8.30;4.85;;;;;;;14.26;84.73;101364.72;3574201;40;20410;-69
2023/07/06 05:22:58;;;;;;;10.13;4.97;;;;;;;14.43;84.94;101388.78;3574569;40;20311;-68
2023/07/06 05:25:26;;;;;;;9.95;5.15;;;;;;;14.55;84.52;101404.16;3571571;40;20358;-69
2023/07/06 05:27:52;;;;;;;14.68;5.60;;;;;;;14.60;84.46;101398.47;3574668;40;20420;-70
2023/07/06 05:30:18;;;;;;;13.10;6.00;;;;;;;14.49;84.69;101366.69;3576241;40;20064;-69
2023/07/06 05:32:44;;;;;;;17.00;6.47;;;;;;;14.68;84.94;101382.53;3572359;40;20376;-71
2023/07/06 05:35:13;;;;;;;11.60;6.00;;;;;;;14.67;84.17;101385.38;3569490;40;20056;-69
2023/07/06 05:37:41;;;;;;;13.60;5.97;;;;;;;14.86;84.99;101407.44;3572007;40;20490;-70
2023/07/06 05:40:10;;;;;;;15.07;5.85;;;;;;;14.81;84.63;101393.38;3572350;40;20052;-69
2023/07/06 05:42:36;;;;;;;16.25;6.32;;;;;;;14.97;84.48;101414.81;3570794;40;20060;-69
2023/07/06 05:45:01;;;;;;;14.02;6.25;;;;;;;14.92;83.80;101390.78;3574407;40;20298;-69
2023/07/06 05:47:28;;;;;;;15.82;7.13;;;;;;;15.02;83.91;101402.69;3570860;40;20106;-69
2023/07/06 05:49:53;;;;;;;15.85;6.95;;;;;;;14.98;84.44;101393.06;3571375;40;20090;-68
2023/07/06 05:52:19;;;;;;;14.50;6.68;;;;;;;15.16;84.89;101411.66;3569407;40;20382;-69
2023/07/06 05:54:45;;;;;;;14.25;7.30;;;;;;;15.19;83.97;101406.91;3573801;40;20056;-69
2023/07/06 05:57:16;;;;;;;17.33;8.02;;;;;;;15.30;83.75;101412.41;3574166;40;20395;-69
2023/07/06 05:59:42;;;;;;;11.70;7.35;;;;;;;15.22;83.08;101400.38;3574096;40;20054;-69
2023/07/06 06:02:12;;;;;;;16.38;7.88;;;;;;;15.30;83.07;101417.81;3572239;40;20467;-70
2023/07/06 06:04:39;;;;;;;15.73;7.80;;;;;;;15.15;83.16;101391.81;3573409;40;20051;-68
2023/07/06 06:07:06;;;;;;;15.43;7.85;;;;;;;15.18;84.04;101391.63;3571240;40;20185;-69
2023/07/06 06:09:33;;;;;;;13.55;8.00;;;;;;;15.35;84.06;101422.03;3570875;40;20323;-69
2023/07/06 06:12:00;;;;;;;17.85;8.82;;;;;;;15.39;84.31;101424.41;3570792;40;20058;-69
2023/07/06 06:14:25;;;;;;;15.75;8.00;;;;;;;15.27;84.44;101390.09;3572423;40;20080;-69
2023/07/06 06:16:51;;;;;;;15.52;8.27;;;;;;;15.50;83.83;101427.19;3572660;40;20131;-70
2023/07/06 06:19:17;;;;;;;14.07;8.00;;;;;;;15.57;83.34;101430.31;3574348;40;20084;-70
2023/07/06 06:21:43;;;;;;;15.15;7.85;;;;;;;15.65;83.36;101436.06;3575241;40;20062;-69
2023/07/06 06:24:09;;;;;;;15.95;7.85;;;;;;;15.78;82.42;101430.63;3570314;40;20433;-70
2023/07/06 06:26:36;;;;;;;17.48;8.45;;;;;;;15.77;82.34;101420.78;3572275;40;20049;-70
2023/07/06 06:29:03;;;;;;;15.55;8.60;;;;;;;15.86;82.49;101428.22;3573002;40;20494;-70
2023/07/06 06:31:30;;;;;;;15.85;8.75;;;;;;;16.00;83.07;101443.44;3580950;39;20325;-69
2023/07/06 06:33:56;;;;;;;18.27;8.90;;;;;;;15.85;80.89;101415.63;3573185;40;20057;-69
2023/07/06 06:36:22;;;;;;;20.02;9.27;;;;;;;16.08;80.73;101441.03;3574743;39;20375;-70
2023/07/06 06:38:49;;;;;;;14.77;8.10;;;;;;;16.17;81.13;101451.16;3575898;40;20063;-70
2023/07/06 06:41:15;;;;;;;15.45;8.60;;;;;;;16.21;81.00;101439.13;3568437;40;20121;-69
2023/07/06 06:43:44;;;;;;;19.95;9.23;;;;;;;16.46;81.71;101458.97;3572464;40;20119;-70
2023/07/06 06:46:13;;;;;;;19.80;9.32;;;;;;;16.46;79.67;101445.41;3572650;40;20305;-70
2023/07/06 06:48:40;;;;;;;19.88;9.82;;;;;;;16.58;80.83;101457.16;3570405;40;20699;-70
2023/07/06 06:51:09;;;;;;;15.05;8.77;;;;;;;16.66;79.56;101462.84;3573991;40;20404;-68
2023/07/06 06:53:39;;;;;;;18.63;9.85;;;;;;;16.72;79.15;101459.69;3576212;40;20048;-71
2023/07/06 06:56:09;;;;;;;16.08;8.60;;;;;;;16.72;78.75;101462.38;3572364;40;20115;-69
2023/07/06 06:58:37;;;;;;;17.42;9.38;;;;;;;16.79;79.14;101466.38;3572364;40;20067;-69
2023/07/06 07:01:07;;;;;;;15.80;9.13;;;;;;;16.86;79.17;101469.47;3575903;40;20052;-69
2023/07/06 07:03:34;;;;;;;18.55;10.00;;;;;;;16.77;78.92;101471.06;3576070;40;20059;-69
2023/07/06 07:06:11;;;;;;;17.48;9.43;;;;;;;16.78;79.21;101478.25;3574883;40;20125;-69
2023/07/06 07:08:45;;;;;;;17.23;9.90;;;;;;;16.88;79.47;101470.25;3573792;40;20108;-69
2023/07/06 07:11:12;;;;;;;17.40;9.95;;;;;;;16.79;79.40;101447.38;3572397;40;20131;-69
2023/07/06 07:13:40;;;;;;;18.08;9.93;;;;;;;17.10;78.34;101480.28;3574353;40;20056;-69
2023/07/06 07:16:11;;;;;;;15.55;9.30;;;;;;;17.08;77.97;101457.78;3570421;40;20380;-69
2023/07/06 07:18:39;;;;;;;16.63;8.82;;;;;;;17.30;77.14;101485.00;3572599;40;20052;-69
2023/07/06 07:21:06;;;;;;;12.77;8.93;;;;;;;17.23;77.70;101456.59;3574428;40;20052;-69
2023/07/06 07:23:42;;;;;;;15.98;8.73;;;;;;;17.48;77.51;101487.22;3574664;40;20052;-71
2023/07/06 07:26:19;;;;;;;13.70;10.00;;;;;;;17.55;75.66;101493.91;3571208;40;20060;-69
2023/07/06 07:28:51;;;;;;;16.17;9.38;;;;;;;17.54;75.65;101493.03;3573335;40;20150;-69
2023/07/06 07:31:19;;;;;;;19.75;10.27;;;;;;;17.34;75.73;101458.44;3574958;40;20100;-69
2023/07/06 07:33:47;;;;;;;15.35;10.15;;;;;;;17.66;76.36;101507.47;3573202;40;20399;-70
2023/07/06 07:36:18;;;;;;;23.00;11.20;;;;;;;17.47;75.53;101458.31;3574121;40;20052;-70
2023/07/06 07:38:46;;;;;;;17.00;10.25;;;;;;;17.94;75.06;101505.28;3571420;40;20052;-70
2023/07/06 07:41:13;;;;;;;18.05;9.73;;;;;;;18.09;74.55;101507.59;3572676;40;20138;-70
2023/07/06 07:43:42;;;;;;;18.40;9.43;;;;;;;18.01;73.49;101482.00;3574707;40;20068;-70
2023/07/06 07:46:11;;;;;;;15.88;9.77;;;;;;;18.19;73.25;101476.91;3574721;40;20108;-70
2023/07/06 07:48:45;;;;;;;15.15;9.50;;;;;;;18.42;72.96;101499.44;3571618;40;20392;-70
2023/07/06 07:51:21;;;;;;;16.70;9.57;;;;;;;18.38;73.57;101498.84;3570468;40;20310;-70
2023/07/06 07:53:47;;;;;;;19.77;10.55;;;;;;;18.38;72.76;101503.44;3573654;40;20354;-70
2023/07/06 07:56:15;;;;;;;23.35;10.20;;;;;;;18.31;73.33;101503.94;3570942;40;20122;-70
2023/07/06 07:58:45;;;;;;;15.77;9.07;;;;;;;18.25;73.01;101493.56;3573176;40;20079;-70
2023/07/06 08:01:11;;;;;;;14.43;8.65;;;;;;;18.23;73.62;101468.31;3573727;40;20052;-70
2023/07/06 08:03:37;;;;;;;17.40;8.35;;;;;;;18.58;73.20;101499.88;3574330;40;20277;-70
2023/07/06 08:06:09;;;;;;;13.68;8.02;;;;;;;18.76;71.52;101494.75;3572380;40;20055;-71
2023/07/06 08:08:38;;;;;;;16.80;9.02;;;;;;;18.99;70.91;101509.13;3569471;40;20498;-69
2023/07/06 08:11:20;;;;;;;19.42;9.40;;;;;;;19.11;70.22;101488.97;3572316;40;20053;-69
2023/07/06 08:13:50;;;;;;;17.60;8.70;;;;;;;19.30;68.56;101501.84;3570491;40;20055;-74
2023/07/06 08:16:19;;;;;;;15.80;8.93;;;;;;;19.50;68.46;101508.25;3574317;40;20049;-70
2023/07/06 08:18:46;;;;;;;16.38;8.75;;;;;;;19.70;67.88;101506.53;3574544;40;20116;-70
2023/07/06 08:21:13;;;;;;;12.82;8.02;;;;;;;19.93;68.15;101509.91;3576627;40;20083;-71
2023/07/06 08:23:49;;;;;;;16.02;9.05;;;;;;;20.01;65.35;101520.97;3575277;40;20064;-70
2023/07/06 08:26:15;;;;;;;16.10;8.00;;;;;;;20.00;65.72;101500.16;3573737;40;20052;-70
2023/07/06 08:28:41;;;;;;;12.45;7.90;;;;;;;20.13;65.31;101498.03;3575337;40;20103;-70
2023/07/06 08:31:17;;;;;;;12.13;7.03;;;;;;;20.32;64.65;101527.22;3577967;40;20356;-72
2023/07/06 08:33:45;;;;;;;14.77;7.68;;;;;;;20.26;65.65;101494.19;3572780;40;20052;-69
2023/07/06 08:36:12;;;;;;;13.40;7.03;;;;;;;20.51;62.66;101525.53;3576316;40;20512;-70
2023/07/06 08:38:38;;;;;;;13.88;6.72;;;;;;;20.69;64.25;101517.53;3576165;40;20068;-70
2023/07/06 08:41:39;;;;;;;16.20;6.25;;;;;;;20.86;61.61;101525.84;3572702;40;20425;-70
2023/07/06 08:44:12;;;;;;;9.68;6.05;;;;;;;20.92;61.76;101529.03;3575015;40;20060;-70
2023/07/06 08:46:45;;;;;;;;;;;;;;;20.86;61.33;101509.47;3580760;39;20060;-71
2023/07/06 08:49:33;;;;;;;10.98;5.57;;;;;;;21.22;60.36;101530.72;3571925;40;19946;-70
2023/07/06 08:52:05;;;;;;;11.35;5.80;;;;;;;21.46;59.72;101546.66;3581733;40;20052;-70
2023/07/06 08:54:36;;;;;;;9.60;5.35;;;;;;;21.20;58.81;101521.81;3573172;40;20149;-70
2023/07/06 08:57:15;;;;;;;37.30;30.10;;;;;;;21.17;59.30;101527.56;3571269;40;20052;-70
2023/07/06 08:59:46;;;;;;;19.77;11.30;;;;;;;21.22;60.13;101544.41;3572473;40;20158;-73
2023/07/06 09:02:26;;;;;;;9.45;6.05;;;;;;;21.11;60.45;101542.69;3574915;40;20137;-71
2023/07/06 09:04:59;;;;;;;11.57;5.72;;;;;;;21.06;60.16;101510.31;3575533;40;20060;-70
2023/07/06 09:07:39;;;;;;;9.40;4.95;;;;;;;21.10;59.05;101541.81;3577337;40;20056;-70
2023/07/06 09:10:23;;;;;;;12.93;8.50;;;;;;;21.25;59.86;101542.25;3573192;40;20052;-70
2023/07/06 09:12:52;;;;;;;24.08;15.95;;;;;;;21.35;58.19;101553.19;3571402;40;20377;-70
2023/07/06 09:15:27;;;;;;;10.95;4.78;;;;;;;21.48;57.83;101553.72;3572819;40;20052;-70
2023/07/06 09:17:59;;;;;;;10.20;3.92;;;;;;;21.82;56.30;101550.44;3570626;40;20122;-69
2023/07/06 09:20:26;;;;;;;7.80;3.80;;;;;;;22.04;56.70;101557.38;3575290;40;20056;-70
2023/07/06 09:22:52;;;;;;;9.38;3.78;;;;;;;21.85;54.91;101555.63;3573624;40;20355;-70
2023/07/06 09:25:35;;;;;;;8.85;4.10;;;;;;;21.89;56.05;101559.78;3574392;40;20052;-69
2023/07/06 09:28:07;;;;;;;8.43;3.63;;;;;;;21.82;55.06;101534.03;3573195;40;20354;-69
2023/07/06 09:30:38;;;;;;;10.30;4.20;;;;;;;22.04;54.71;101546.44;3574850;40;20064;-69
2023/07/06 09:33:19;;;;;;;8.52;3.38;;;;;;;21.59;55.18;101483.41;3571377;40;20286;-69
2023/07/06 09:35:53;;;;;;;11.32;3.63;;;;;;;21.87;55.00;101553.56;3570686;40;20354;-69
2023/07/06 09:38:20;;;;;;;11.45;4.05;;;;;;;21.87;53.87;101553.56;3574260;40;20496;-69
2023/07/06 09:40:46;;;;;;;7.93;3.42;;;;;;;22.04;55.90;101551.91;3574395;40;20386;-70
2023/07/06 09:43:23;;;;;;;11.20;3.55;;;;;;;22.17;56.28;101548.84;3575657;40;20112;-70
2023/07/06 09:45:52;;;;;;;7.32;3.13;;;;;;;22.21;52.96;101522.88;3575865;40;20293;-69
2023/07/06 09:48:28;;;;;;;7.53;3.13;;;;;;;22.55;53.62;101547.75;3573512;40;20396;-69
2023/07/06 09:51:22;;;;;;;7.53;2.70;;;;;;;22.72;51.87;101548.75;3571347;40;20053;-70
2023/07/06 09:54:05;;;;;;;7.18;2.95;;;;;;;22.83;52.02;101555.88;3572961;39;20114;-70
2023/07/06 09:56:31;;;;;;;5.07;2.67;;;;;;;22.92;49.39;101549.47;3569962;40;20121;-69
2023/07/06 09:59:00;;;;;;;6.10;2.78;;;;;;;23.08;50.44;101555.09;3568692;40;20091;-69
2023/07/06 10:01:31;;;;;;;5.03;2.25;;;;;;;23.26;49.92;101552.34;3566944;40;20044;-70
2023/07/06 10:04:38;;;;;;;7.35;2.67;;;;;;;23.61;47.94;101548.63;3568969;40;20108;-70
2023/07/06 10:07:23;;;;;;;6.72;2.60;;;;;;;23.60;47.52;101537.81;3575787;40;20055;-69
2023/07/06 10:10:03;;;;;;;7.38;2.92;;;;;;;23.70;49.78;101538.59;3572343;40;20059;-69
2023/07/06 10:12:39;;;;;;;5.10;2.53;;;;;;;24.03;48.70;101555.22;3577769;39;20098;-69
2023/07/06 10:15:19;;;;;;;8.38;2.90;;;;;;;24.00;47.95;101550.91;3576750;39;20414;-70
2023/07/06 10:18:19;;;;;;;6.22;2.10;;;;;;;24.20;45.55;101546.03;3575553;40;20586;-69
2023/07/06 10:21:25;;;;;;;6.32;2.10;;;;;;;24.38;43.80;101523.91;3573518;40;20045;-70
2023/07/06 10:24:01;;;;;;;5.13;2.20;;;;;;;24.67;44.05;101550.09;3570109;40;20092;-70
2023/07/06 10:26:34;;;;;;;4.32;2.05;;;;;;;24.86;42.46;101537.94;3570971;40;20326;-69
2023/07/06 10:29:09;;;;;;;6.88;2.60;;;;;;;25.03;42.98;101547.91;3573471;40;20044;-69
2023/07/06 10:31:46;;;;;;;6.03;2.40;;;;;;;25.19;44.95;101547.09;3578048;39;20078;-69
2023/07/06 10:34:38;;;;;;;5.38;2.35;;;;;;;25.34;44.13;101536.22;3570498;40;20092;-69
2023/07/06 10:37:08;;;;;;;4.78;2.50;;;;;;;25.41;42.26;101529.84;3578087;39;20123;-70
2023/07/06 10:39:43;;;;;;;4.85;2.42;;;;;;;25.07;43.01;101543.78;3571053;40;20154;-70
2023/07/06 10:42:31;;;;;;;4.85;2.17;;;;;;;24.97;44.02;101538.44;3569398;40;20052;-70
2023/07/06 10:45:02;;;;;;;4.22;2.00;;;;;;;24.95;42.47;101539.66;3571864;40;20052;-69
2023/07/06 10:47:44;;;;;;;4.60;2.28;;;;;;;24.41;43.47;101446.66;3571260;40;20348;-69
2023/07/06 10:50:30;;;;;;;4.53;2.05;;;;;;;25.19;42.00;101536.94;3573365;40;20198;-67
2023/07/06 10:53:17;;;;;;;3.97;1.88;;;;;;;25.11;42.61;101542.41;3573882;40;20153;-67
2023/07/06 10:56:02;;;;;;;3.95;1.73;;;;;;;25.14;40.14;101539.31;3571099;40;20064;-68
2023/07/06 10:58:33;;;;;;;2.92;1.80;;;;;;;25.18;41.11;101532.47;3569098;40;20064;-67
2023/07/06 11:01:10;;;;;;;4.57;2.28;;;;;;;25.17;40.69;101527.97;3575837;40;20061;-67
2023/07/06 11:03:42;;;;;;;4.50;1.73;;;;;;;25.27;41.36;101547.06;3574799;40;20056;-67
2023/07/06 11:06:54;;;;;;;5.68;1.80;;;;;;;25.19;40.72;101553.44;3573518;40;20271;-67
2023/07/06 11:09:21;;;;;;;4.30;2.03;;;;;;;25.14;42.60;101555.84;3572246;40;20053;-68
2023/07/06 11:11:52;;;;;;;4.22;2.08;;;;;;;25.00;41.58;101554.63;3566478;40;20053;-68
2023/07/06 11:14:33;;;;;;;4.30;1.70;;;;;;;24.65;40.43;101549.44;3568115;40;20400;-67
2023/07/06 11:17:30;;;;;;;4.63;1.80;;;;;;;24.28;41.55;101557.03;3573260;40;20054;-67
2023/07/06 11:20:10;;;;;;;4.95;2.15;;;;;;;24.18;42.86;101556.31;3571692;40;20148;-68
2023/07/06 11:22:41;;;;;;;4.18;1.90;;;;;;;24.24;41.92;101547.41;3572660;40;20393;-67
2023/07/06 11:25:13;;;;;;;2.95;1.55;;;;;;;24.04;40.81;101557.81;3570394;40;20049;-67
2023/07/06 11:27:45;;;;;;;2.60;1.50;;;;;;;23.75;42.03;101558.16;3567675;40;20454;-67
2023/07/06 11:30:25;;;;;;;6.00;1.85;;;;;;;23.72;42.62;101554.88;3571499;40;20137;-69
2023/07/06 11:33:24;;;;;;;4.57;2.05;;;;;;;23.93;43.07;101560.00;3570947;40;20384;-67
2023/07/06 11:36:26;;;;;;;4.72;2.13;;;;;;;24.12;41.71;101554.22;3571989;40;20049;-67
2023/07/06 11:39:05;;;;;;;2.95;1.60;;;;;;;24.02;40.38;101564.50;3575216;40;20068;-67
2023/07/06 11:41:54;;;;;;;3.47;1.52;;;;;;;23.88;41.87;101567.84;3572083;40;20382;-67
2023/07/06 11:44:36;;;;;;;2.42;1.50;;;;;;;23.79;43.00;101566.97;3569138;40;20306;-68
2023/07/06 11:47:37;;;;;;;3.53;1.70;;;;;;;23.86;43.37;101566.13;3570294;40;20045;-67